createdAt,value
2018-07-30T00:02:09.541Z,22.40
2018-07-30T00:04:37.810Z,22.50
2018-07-30T00:09:34.078Z,22.40
2018-07-30T00:12:02.310Z,22.40
2018-07-30T00:14:30.730Z,22.40
2018-07-30T00:16:59.014Z,22.40
2018-07-30T00:19:27.349Z,22.40
2018-07-30T00:21:55.638Z,22.30
2018-07-30T00:24:23.914Z,22.30
2018-07-30T00:26:52.198Z,22.40
2018-07-30T00:29:20.444Z,22.30
2018-07-30T00:31:48.828Z,22.20
2018-07-30T00:34:17.130Z,22.10
2018-07-30T00:36:45.373Z,22.00
2018-07-30T00:39:13.686Z,22.00
2018-07-30T00:41:41.935Z,21.90
2018-07-30T00:44:10.199Z,21.90
2018-07-30T00:46:38.577Z,21.80
2018-07-30T00:49:07.400Z,21.90
2018-07-30T00:51:35.762Z,21.90
2018-07-30T00:54:04.000Z,21.90
2018-07-30T00:56:32.418Z,21.80
2018-07-30T00:59:00.707Z,21.60
2018-07-30T01:01:28.969Z,21.60
2018-07-30T01:03:57.268Z,21.60
2018-07-30T01:06:25.544Z,21.60
2018-07-30T01:08:53.825Z,21.50
2018-07-30T01:11:22.085Z,21.40
2018-07-30T01:13:50.277Z,21.50
2018-07-30T01:16:18.547Z,21.50
2018-07-30T01:18:47.084Z,21.50
2018-07-30T01:21:15.601Z,21.40
2018-07-30T01:23:43.867Z,21.40
2018-07-30T01:26:17.593Z,21.50
2018-07-30T01:28:46.113Z,21.50
2018-07-30T01:31:14.337Z,21.50
2018-07-30T01:33:42.617Z,21.40
2018-07-30T01:36:10.858Z,21.40
2018-07-30T01:38:39.049Z,21.40
2018-07-30T01:41:07.341Z,21.40
2018-07-30T01:43:35.564Z,21.30
2018-07-30T01:46:04.425Z,21.30
2018-07-30T01:48:39.339Z,21.20
2018-07-30T01:51:07.653Z,21.20
2018-07-30T01:53:35.897Z,21.10
2018-07-30T01:56:04.139Z,21.10
2018-07-30T01:58:32.347Z,21.10
2018-07-30T02:01:00.614Z,21.00
2018-07-30T02:03:29.145Z,20.90
2018-07-30T02:05:57.452Z,20.90
2018-07-30T02:08:25.774Z,20.90
2018-07-30T02:10:54.022Z,20.90
2018-07-30T02:13:22.285Z,20.90
2018-07-30T02:15:50.990Z,20.90
2018-07-30T02:18:19.235Z,20.90
2018-07-30T02:20:50.610Z,20.70
2018-07-30T02:23:18.894Z,20.70
2018-07-30T02:25:47.273Z,20.70
2018-07-30T02:28:15.577Z,20.70
2018-07-30T02:30:43.827Z,20.70
2018-07-30T02:33:12.141Z,20.60
2018-07-30T02:35:40.421Z,20.60
2018-07-30T02:38:08.656Z,20.50
2018-07-30T02:40:36.926Z,20.60
2018-07-30T02:43:05.580Z,20.60
2018-07-30T02:45:33.813Z,20.60
2018-07-30T02:48:02.054Z,20.60
2018-07-30T02:50:30.311Z,20.60
2018-07-30T02:52:58.490Z,20.50
2018-07-30T02:55:26.747Z,20.60
2018-07-30T02:57:54.982Z,20.50
2018-07-30T03:00:23.230Z,20.50
2018-07-30T03:02:51.413Z,20.40
2018-07-30T03:05:20.008Z,20.40
2018-07-30T03:07:48.251Z,20.30
2018-07-30T03:10:16.533Z,20.30
2018-07-30T03:12:44.741Z,20.30
2018-07-30T03:15:13.260Z,20.30
2018-07-30T03:17:41.469Z,20.30
2018-07-30T03:20:10.175Z,20.20
2018-07-30T03:22:38.453Z,20.10
2018-07-30T03:25:06.921Z,20.10
2018-07-30T03:27:35.186Z,20.10
2018-07-30T03:30:03.466Z,20.20
2018-07-30T03:32:31.787Z,20.20
2018-07-30T03:35:00.006Z,20.20
2018-07-30T03:37:28.250Z,20.20
2018-07-30T03:39:56.527Z,20.30
2018-07-30T03:42:24.906Z,20.30
2018-07-30T03:44:53.114Z,20.30
2018-07-30T03:47:21.398Z,20.30
2018-07-30T03:49:49.597Z,20.20
2018-07-30T03:52:17.865Z,20.10
2018-07-30T03:54:46.119Z,20.20
2018-07-30T03:57:15.236Z,20.20
2018-07-30T03:59:43.498Z,20.20
2018-07-30T04:02:12.119Z,20.20
2018-07-30T04:04:40.312Z,20.30
2018-07-30T04:09:36.518Z,20.30
2018-07-30T04:12:04.752Z,20.30
2018-07-30T04:14:32.981Z,20.20
2018-07-30T04:17:01.191Z,20.20
2018-07-30T04:19:29.431Z,20.30
2018-07-30T04:21:57.675Z,20.30
2018-07-30T04:24:25.906Z,20.30
2018-07-30T04:26:54.388Z,20.20
2018-07-30T04:29:22.759Z,20.20
2018-07-30T04:31:50.992Z,20.20
2018-07-30T04:34:19.398Z,20.30
2018-07-30T04:36:47.743Z,20.50
2018-07-30T04:39:16.076Z,20.60
2018-07-30T04:41:44.757Z,20.70
2018-07-30T04:44:13.033Z,20.80
2018-07-30T04:46:41.260Z,20.80
2018-07-30T04:49:09.496Z,20.90
2018-07-30T04:51:37.722Z,21.00
2018-07-30T04:54:06.087Z,21.10
2018-07-30T04:56:34.369Z,21.20
2018-07-30T04:59:02.706Z,21.20
2018-07-30T05:01:31.066Z,21.30
2018-07-30T05:03:59.313Z,21.40
2018-07-30T05:06:27.658Z,21.50
2018-07-30T05:08:56.389Z,21.60
2018-07-30T05:11:24.702Z,21.50
2018-07-30T05:13:52.917Z,21.60
2018-07-30T05:16:21.238Z,21.60
2018-07-30T05:18:49.477Z,21.50
2018-07-30T05:21:17.855Z,21.50
2018-07-30T05:23:46.114Z,21.60
2018-07-30T05:26:14.698Z,21.70
2018-07-30T05:28:43.023Z,21.70
2018-07-30T05:31:11.325Z,21.70
2018-07-30T05:33:40.454Z,21.80
2018-07-30T05:36:09.359Z,21.80
2018-07-30T05:38:37.804Z,22.00
2018-07-30T05:41:08.094Z,22.20
2018-07-30T05:43:36.933Z,22.30
2018-07-30T05:46:05.228Z,22.50
2018-07-30T05:48:33.487Z,22.70
2018-07-30T05:51:01.722Z,23.00
2018-07-30T05:53:29.962Z,23.40
2018-07-30T05:55:58.260Z,23.70
2018-07-30T05:58:26.446Z,24.10
2018-07-30T06:00:54.664Z,24.60
2018-07-30T06:03:22.908Z,24.90
2018-07-30T06:05:51.410Z,25.40
2018-07-30T06:08:19.690Z,25.80
2018-07-30T06:10:48.138Z,26.10
2018-07-30T06:13:23.322Z,26.40
2018-07-30T06:15:51.538Z,26.70
2018-07-30T06:18:19.759Z,27.00
2018-07-30T06:20:48.357Z,27.30
2018-07-30T06:23:16.611Z,27.60
2018-07-30T06:25:44.978Z,27.90
2018-07-30T06:28:14.916Z,28.10
2018-07-30T06:30:43.190Z,28.40
2018-07-30T06:33:11.508Z,28.70
2018-07-30T06:35:39.737Z,28.90
2018-07-30T06:38:07.997Z,29.00
2018-07-30T06:40:36.298Z,29.20
2018-07-30T06:43:04.510Z,29.10
2018-07-30T06:45:32.827Z,29.10
2018-07-30T06:48:07.679Z,29.50
2018-07-30T06:50:35.909Z,29.70
2018-07-30T06:53:04.181Z,30.00
2018-07-30T06:55:32.426Z,30.30
2018-07-30T06:58:00.687Z,30.70
2018-07-30T07:00:28.957Z,30.90
2018-07-30T07:02:57.422Z,31.10
2018-07-30T07:05:25.602Z,31.20
2018-07-30T07:07:53.831Z,31.50
2018-07-30T07:10:22.078Z,31.60
2018-07-30T07:12:50.748Z,31.80
2018-07-30T07:15:18.909Z,32.00
2018-07-30T07:17:47.214Z,31.90
2018-07-30T07:20:15.394Z,32.20
2018-07-30T07:22:43.597Z,32.60
2018-07-30T07:25:11.886Z,32.70
2018-07-30T07:27:40.072Z,33.00
2018-07-30T07:30:09.590Z,33.20
2018-07-30T07:32:37.798Z,33.00
2018-07-30T07:35:06.396Z,33.10
2018-07-30T07:37:34.590Z,33.30
2018-07-30T07:40:02.909Z,33.50
2018-07-30T07:42:31.179Z,33.70
2018-07-30T07:44:59.415Z,33.90
2018-07-30T07:47:27.595Z,34.00
2018-07-30T07:49:56.014Z,34.10
2018-07-30T07:52:24.164Z,34.10
2018-07-30T07:54:52.774Z,34.10
2018-07-30T07:57:21.009Z,34.30
2018-07-30T07:59:49.926Z,34.20
2018-07-30T08:02:18.216Z,33.90
2018-07-30T08:04:46.390Z,33.70
2018-07-30T08:07:14.606Z,34.00
2018-07-30T08:09:42.827Z,34.00
2018-07-30T08:12:11.646Z,34.20
2018-07-30T08:14:39.877Z,34.40
2018-07-30T08:17:08.050Z,34.70
2018-07-30T08:19:36.289Z,34.80
2018-07-30T08:22:04.517Z,34.90
2018-07-30T08:24:32.786Z,35.00
2018-07-30T08:27:01.053Z,34.90
2018-07-30T08:29:29.290Z,35.00
2018-07-30T08:31:57.465Z,34.90
2018-07-30T08:34:25.786Z,34.70
2018-07-30T08:36:53.970Z,34.90
2018-07-30T08:39:22.350Z,35.40
2018-07-30T08:41:51.528Z,35.80
2018-07-30T08:44:19.869Z,36.10
2018-07-30T08:46:48.074Z,36.20
2018-07-30T08:49:16.238Z,36.40
2018-07-30T08:51:44.397Z,36.70
2018-07-30T08:54:12.702Z,36.70
2018-07-30T08:56:40.966Z,36.50
2018-07-30T08:59:09.219Z,36.30
2018-07-30T09:01:37.390Z,36.40
2018-07-30T09:04:05.826Z,36.60
2018-07-30T09:06:33.998Z,36.90
2018-07-30T09:09:02.219Z,37.00
2018-07-30T09:11:30.447Z,37.20
2018-07-30T09:13:58.685Z,36.80
2018-07-30T09:16:26.896Z,36.10
2018-07-30T09:18:55.190Z,35.90
2018-07-30T09:21:23.413Z,36.00
2018-07-30T09:23:51.622Z,36.60
2018-07-30T09:26:19.814Z,37.00
2018-07-30T09:28:48.105Z,37.10
2018-07-30T09:31:16.417Z,37.10
2018-07-30T09:33:44.642Z,37.10
2018-07-30T09:36:13.718Z,37.10
2018-07-30T09:38:41.994Z,37.30
2018-07-30T09:41:10.192Z,37.60
2018-07-30T09:43:38.374Z,37.50
2018-07-30T09:46:06.595Z,37.00
2018-07-30T09:48:34.778Z,36.60
2018-07-30T09:51:03.014Z,36.70
2018-07-30T09:53:31.230Z,36.90
2018-07-30T09:55:59.606Z,37.10
2018-07-30T09:58:28.102Z,37.00
2018-07-30T10:01:05.354Z,36.80
2018-07-30T10:03:34.298Z,37.00
2018-07-30T10:06:02.713Z,37.40
2018-07-30T10:08:30.917Z,37.40
2018-07-30T10:10:59.266Z,36.90
2018-07-30T10:13:28.405Z,36.40
2018-07-30T10:15:56.610Z,36.10
2018-07-30T10:18:24.876Z,35.90
2018-07-30T10:20:53.022Z,35.90
2018-07-30T10:23:21.469Z,35.90
2018-07-30T10:25:49.674Z,36.00
2018-07-30T10:28:17.909Z,36.00
2018-07-30T10:30:46.581Z,36.00
2018-07-30T10:33:14.703Z,36.10
2018-07-30T10:35:43.176Z,35.50
2018-07-30T10:38:11.549Z,35.70
2018-07-30T10:40:39.697Z,35.80
2018-07-30T10:43:07.952Z,36.00
2018-07-30T10:45:36.307Z,36.00
2018-07-30T10:48:04.702Z,36.60
2018-07-30T10:50:32.906Z,36.50
2018-07-30T10:53:01.154Z,36.30
2018-07-30T10:55:29.468Z,36.60
2018-07-30T10:57:57.753Z,36.80
2018-07-30T11:00:25.978Z,36.60
2018-07-30T11:02:54.284Z,36.50
2018-07-30T11:05:22.522Z,36.10
2018-07-30T11:07:52.237Z,36.00
2018-07-30T11:10:20.447Z,35.40
2018-07-30T11:12:48.677Z,34.70
2018-07-30T11:15:16.898Z,34.30
2018-07-30T11:17:45.109Z,34.40
2018-07-30T11:20:13.497Z,34.40
2018-07-30T11:22:41.738Z,34.40
2018-07-30T11:25:10.059Z,34.40
2018-07-30T11:27:38.257Z,34.40
2018-07-30T11:30:06.765Z,34.40
2018-07-30T11:32:34.984Z,34.40
2018-07-30T11:35:03.307Z,34.00
2018-07-30T11:37:31.497Z,33.70
2018-07-30T11:39:59.755Z,33.50
2018-07-30T11:42:27.932Z,33.30
2018-07-30T11:44:56.118Z,32.70
2018-07-30T11:47:24.332Z,32.70
2018-07-30T11:49:53.161Z,32.80
2018-07-30T11:52:21.452Z,32.50
2018-07-30T11:54:49.927Z,32.50
2018-07-30T11:57:18.201Z,32.40
2018-07-30T11:59:46.460Z,32.50
2018-07-30T12:02:14.651Z,32.60
2018-07-30T12:04:42.947Z,32.10
2018-07-30T12:07:11.637Z,31.60
2018-07-30T12:09:39.867Z,31.50
2018-07-30T12:12:08.167Z,31.30
2018-07-30T12:14:36.378Z,31.40
2018-07-30T12:17:04.692Z,31.30
2018-07-30T12:19:32.914Z,31.40
2018-07-30T12:22:01.218Z,31.50
2018-07-30T12:24:30.008Z,31.50
2018-07-30T12:26:58.246Z,31.60
2018-07-30T12:29:26.522Z,31.80
2018-07-30T12:31:54.803Z,31.90
2018-07-30T12:34:23.144Z,32.00
2018-07-30T12:36:51.375Z,32.10
2018-07-30T12:41:47.616Z,32.50
2018-07-30T12:44:15.782Z,32.50
2018-07-30T12:46:44.035Z,32.60
2018-07-30T12:49:12.363Z,32.70
2018-07-30T12:54:08.566Z,32.80
2018-07-30T12:56:36.825Z,32.50
2018-07-30T12:59:05.000Z,32.30
2018-07-30T13:01:33.594Z,32.10
2018-07-30T13:04:01.864Z,32.10
2018-07-30T13:06:30.239Z,32.10
2018-07-30T13:08:58.581Z,31.90
2018-07-30T13:11:26.875Z,31.80
2018-07-30T13:13:55.150Z,31.80
2018-07-30T13:16:23.571Z,31.60
2018-07-30T13:18:51.759Z,31.60
2018-07-30T13:21:20.047Z,31.60
2018-07-30T13:23:48.289Z,31.50
2018-07-30T13:26:16.598Z,31.60
2018-07-30T13:28:44.861Z,31.60
2018-07-30T13:31:13.182Z,31.60
2018-07-30T13:33:41.460Z,31.50
2018-07-30T13:36:09.654Z,31.30
2018-07-30T13:38:37.940Z,31.20
2018-07-30T13:41:06.242Z,31.30
2018-07-30T13:43:34.428Z,31.50
2018-07-30T13:46:02.758Z,31.60
2018-07-30T13:48:30.974Z,31.60
2018-07-30T13:50:59.202Z,31.70
2018-07-30T13:53:27.382Z,31.70
2018-07-30T13:55:55.566Z,31.70
2018-07-30T13:58:23.950Z,31.80
2018-07-30T14:00:52.248Z,31.90
2018-07-30T14:03:20.485Z,31.80
2018-07-30T14:05:48.696Z,31.80
2018-07-30T14:08:16.893Z,31.80
2018-07-30T14:10:45.193Z,31.70
2018-07-30T14:13:13.409Z,31.60
2018-07-30T14:15:41.605Z,31.60
2018-07-30T14:18:09.870Z,31.60
2018-07-30T14:20:38.346Z,31.60
2018-07-30T14:23:07.106Z,31.80
2018-07-30T14:25:35.380Z,31.90
2018-07-30T14:30:31.589Z,32.20
2018-07-30T14:32:59.775Z,32.30
2018-07-30T14:35:28.090Z,32.30
2018-07-30T14:37:56.225Z,32.10
2018-07-30T14:40:24.558Z,32.10
2018-07-30T14:42:52.857Z,32.20
2018-07-30T14:45:21.113Z,32.30
2018-07-30T14:47:49.328Z,32.40
2018-07-30T14:50:17.666Z,32.30
2018-07-30T14:52:45.906Z,32.30
2018-07-30T14:55:14.194Z,32.20
2018-07-30T14:57:42.430Z,32.10
2018-07-30T15:00:11.631Z,32.10
2018-07-30T15:02:39.887Z,32.10
2018-07-30T15:05:08.478Z,32.20
2018-07-30T15:07:36.773Z,32.20
2018-07-30T15:10:05.445Z,32.10
2018-07-30T15:12:33.641Z,32.10
2018-07-30T15:15:01.850Z,32.00
2018-07-30T15:17:30.049Z,32.10
2018-07-30T15:19:58.313Z,32.10
2018-07-30T15:22:26.520Z,32.00
2018-07-30T15:24:54.901Z,32.00
2018-07-30T15:29:51.072Z,32.00
2018-07-30T15:32:19.420Z,31.90
2018-07-30T15:34:47.629Z,31.90
2018-07-30T15:37:15.928Z,31.90
2018-07-30T15:39:44.140Z,31.80
2018-07-30T15:42:12.392Z,31.80
2018-07-30T15:44:40.581Z,31.80
2018-07-30T15:47:08.924Z,31.90
2018-07-30T15:49:37.182Z,32.00
2018-07-30T15:52:05.463Z,32.00
2018-07-30T15:54:34.447Z,32.00
2018-07-30T15:57:02.633Z,32.00
2018-07-30T15:59:30.837Z,32.00
2018-07-30T16:01:59.117Z,32.00
2018-07-30T16:04:27.295Z,32.00
2018-07-30T16:06:55.486Z,31.90
2018-07-30T16:09:23.955Z,32.00
2018-07-30T16:11:52.228Z,32.00
2018-07-30T16:14:20.575Z,32.00
2018-07-30T16:16:48.809Z,32.00
2018-07-30T16:19:17.142Z,32.00
2018-07-30T16:21:45.330Z,32.00
2018-07-30T16:24:13.570Z,32.00
2018-07-30T16:26:41.791Z,31.80
2018-07-30T16:29:10.107Z,31.80
2018-07-30T16:31:38.318Z,31.80
2018-07-30T16:34:07.458Z,31.70
2018-07-30T16:36:35.821Z,31.70
2018-07-30T16:39:05.826Z,31.70
2018-07-30T16:41:34.168Z,31.70
2018-07-30T16:44:02.287Z,31.60
2018-07-30T16:46:30.529Z,31.70
2018-07-30T16:48:58.797Z,31.50
2018-07-30T16:51:27.097Z,31.60
2018-07-30T16:53:55.361Z,31.50
2018-07-30T16:56:23.640Z,31.50
2018-07-30T16:58:51.968Z,31.60
2018-07-30T17:01:20.191Z,31.60
2018-07-30T17:03:48.399Z,31.50
2018-07-30T17:06:16.689Z,31.50
2018-07-30T17:08:44.905Z,31.50
2018-07-30T17:11:13.130Z,31.50
2018-07-30T17:13:41.459Z,31.50
2018-07-30T17:16:09.684Z,31.50
2018-07-30T17:18:38.134Z,31.50
2018-07-30T17:21:06.542Z,31.40
2018-07-30T17:23:36.044Z,31.40
2018-07-30T17:26:04.346Z,31.30
2018-07-30T17:28:32.620Z,31.30
2018-07-30T17:31:01.208Z,31.30
2018-07-30T17:33:29.508Z,31.30
2018-07-30T17:35:57.718Z,31.20
2018-07-30T17:38:25.986Z,31.10
2018-07-30T17:40:54.501Z,31.10
2018-07-30T17:43:22.725Z,31.00
2018-07-30T17:45:52.062Z,31.00
2018-07-30T17:48:20.257Z,31.00
2018-07-30T17:50:48.550Z,31.00
2018-07-30T17:53:16.821Z,30.90
2018-07-30T17:55:45.027Z,30.90
2018-07-30T17:58:13.381Z,30.90
2018-07-30T18:00:41.643Z,30.80
2018-07-30T18:03:09.950Z,30.80
2018-07-30T18:05:38.318Z,30.80
2018-07-30T18:08:07.016Z,30.70
2018-07-30T18:10:35.301Z,30.70
2018-07-30T18:13:03.627Z,30.70
2018-07-30T18:15:31.943Z,30.70
2018-07-30T18:18:00.171Z,30.70
2018-07-30T18:20:28.494Z,30.70
2018-07-30T18:22:57.195Z,30.70
2018-07-30T18:25:25.917Z,30.60
2018-07-30T18:27:54.179Z,30.60
2018-07-30T18:30:22.526Z,30.50
2018-07-30T18:32:50.788Z,30.50
2018-07-30T18:35:19.023Z,30.50
2018-07-30T18:37:47.279Z,30.40
2018-07-30T18:40:15.558Z,30.30
2018-07-30T18:42:43.804Z,30.30
2018-07-30T18:45:12.314Z,30.30
2018-07-30T18:47:40.590Z,30.20
2018-07-30T18:50:08.818Z,30.20
2018-07-30T18:52:37.467Z,30.20
2018-07-30T18:55:05.874Z,30.10
2018-07-30T18:57:34.154Z,30.10
2018-07-30T19:00:02.492Z,30.00
2018-07-30T19:02:30.675Z,29.90
2018-07-30T19:04:59.013Z,29.90
2018-07-30T19:07:27.275Z,29.80
2018-07-30T19:09:55.466Z,29.70
2018-07-30T19:12:23.729Z,29.60
2018-07-30T19:14:52.007Z,29.50
2018-07-30T19:17:20.307Z,29.30
2018-07-30T19:19:48.578Z,29.30
2018-07-30T19:22:17.088Z,29.20
2018-07-30T19:24:45.322Z,29.10
2018-07-30T19:27:13.553Z,29.10
2018-07-30T19:29:41.777Z,29.00
2018-07-30T19:32:10.052Z,29.00
2018-07-30T19:34:38.438Z,28.90
2018-07-30T19:37:06.850Z,28.80
2018-07-30T19:39:35.185Z,28.80
2018-07-30T19:42:03.390Z,28.70
2018-07-30T19:44:31.997Z,28.70
2018-07-30T19:47:00.154Z,28.60
2018-07-30T19:49:29.286Z,28.60
2018-07-30T19:51:57.639Z,28.50
2018-07-30T19:54:25.850Z,28.40
2018-07-30T19:56:54.509Z,28.30
2018-07-30T19:59:22.690Z,28.30
2018-07-30T20:01:51.118Z,28.20
2018-07-30T20:04:19.419Z,28.20
2018-07-30T20:06:47.686Z,28.10
2018-07-30T20:09:15.803Z,28.00
2018-07-30T20:11:44.038Z,27.90
2018-07-30T20:14:12.230Z,27.80
2018-07-30T20:16:40.454Z,27.70
2018-07-30T20:19:09.057Z,27.60
2018-07-30T20:21:37.282Z,27.60
2018-07-30T20:24:05.567Z,27.50
2018-07-30T20:26:34.238Z,27.50
2018-07-30T20:29:02.462Z,27.50
2018-07-30T20:31:30.666Z,27.50
2018-07-30T20:33:59.411Z,27.40
2018-07-30T20:36:27.769Z,27.30
2018-07-30T20:38:56.094Z,27.10
2018-07-30T20:41:24.456Z,27.00
2018-07-30T20:43:53.258Z,26.80
2018-07-30T20:46:21.534Z,26.80
2018-07-30T20:48:49.745Z,26.70
2018-07-30T20:51:18.608Z,26.70
2018-07-30T20:53:47.094Z,26.70
2018-07-30T20:56:15.341Z,26.70
2018-07-30T20:58:43.662Z,26.70
2018-07-30T21:01:11.878Z,26.60
2018-07-30T21:03:40.134Z,26.60
2018-07-30T21:06:08.378Z,26.50
2018-07-30T21:08:36.737Z,26.50
2018-07-30T21:11:04.966Z,26.30
2018-07-30T21:13:33.225Z,26.20
2018-07-30T21:16:01.626Z,26.10
2018-07-30T21:18:29.838Z,26.00
2018-07-30T21:20:58.078Z,26.00
2018-07-30T21:23:26.374Z,26.00
2018-07-30T21:25:54.766Z,26.00
2018-07-30T21:28:23.042Z,26.00
2018-07-30T21:30:51.548Z,25.90
2018-07-30T21:33:19.758Z,25.80
2018-07-30T21:35:47.965Z,25.80
2018-07-30T21:38:16.274Z,25.70
2018-07-30T21:40:44.503Z,25.70
2018-07-30T21:43:12.784Z,25.70
2018-07-30T21:45:40.979Z,25.80
2018-07-30T21:48:09.410Z,25.70
2018-07-30T21:50:37.645Z,25.70
2018-07-30T21:53:06.001Z,25.70
2018-07-30T21:55:34.199Z,25.70
2018-07-30T21:58:02.415Z,25.70
2018-07-30T22:00:30.637Z,25.60
2018-07-30T22:02:58.867Z,25.60
2018-07-30T22:07:55.033Z,25.30
2018-07-30T22:10:24.385Z,25.20
2018-07-30T22:12:53.565Z,25.10
2018-07-30T22:15:22.142Z,25.00
2018-07-30T22:17:50.458Z,24.90
2018-07-30T22:20:18.827Z,24.90
2018-07-30T22:22:47.083Z,24.80
2018-07-30T22:25:15.278Z,24.70
2018-07-30T22:27:43.509Z,24.60
2018-07-30T22:30:11.854Z,24.50
2018-07-30T22:32:40.084Z,24.50
2018-07-30T22:35:09.150Z,24.50
2018-07-30T22:37:37.378Z,24.40
2018-07-30T22:40:06.632Z,24.40
2018-07-30T22:42:35.003Z,24.40
2018-07-30T22:45:03.227Z,24.20
2018-07-30T22:47:31.482Z,24.10
2018-07-30T22:49:59.675Z,24.10
2018-07-30T22:52:28.098Z,24.10
2018-07-30T22:54:56.336Z,24.00
2018-07-30T22:57:24.522Z,24.00
2018-07-30T22:59:52.753Z,24.10
2018-07-30T23:02:21.009Z,24.00
2018-07-30T23:04:49.238Z,24.00
2018-07-30T23:07:17.401Z,24.10
2018-07-30T23:09:45.600Z,24.00
2018-07-30T23:12:13.804Z,24.00
2018-07-30T23:14:42.001Z,23.90
2018-07-30T23:17:10.200Z,23.90
2018-07-30T23:22:06.485Z,23.80
2018-07-30T23:24:34.755Z,23.80
2018-07-30T23:27:02.949Z,23.70
2018-07-30T23:29:31.171Z,23.50
2018-07-30T23:31:59.669Z,23.40
2018-07-30T23:34:27.986Z,23.30
2018-07-30T23:36:56.273Z,23.30
2018-07-30T23:39:24.441Z,23.40
2018-07-30T23:41:52.725Z,23.40
2018-07-30T23:44:20.930Z,23.40
2018-07-30T23:46:49.154Z,23.40
2018-07-30T23:49:17.377Z,23.50
2018-07-30T23:51:45.632Z,23.40
2018-07-30T23:54:13.837Z,23.40
2018-07-30T23:56:42.077Z,23.30
2018-07-30T23:59:10.354Z,23.30
